sensor_id;sensor_type;location;lat;lon;timestamp;temperature;humidity
19952;DHT22;10137;49.406;19.484;2024-02-28T00:00:57;7.70;99.90
19952;DHT22;10137;49.406;19.484;2024-02-28T00:03:24;7.80;99.90
19952;DHT22;10137;49.406;19.484;2024-02-28T00:05:51;7.80;99.90
19952;DHT22;10137;49.406;19.484;2024-02-28T00:08:19;7.80;99.90
19952;DHT22;10137;49.406;19.484;2024-02-28T00:10:47;7.90;99.90
19952;DHT22;10137;49.406;19.484;2024-02-28T00:13:15;7.80;99.90
19952;DHT22;10137;49.406;19.484;2024-02-28T00:15:42;7.80;99.90
19952;DHT22;10137;49.406;19.484;2024-02-28T00:18:09;7.90;99.90
19952;DHT22;10137;49.406;19.484;2024-02-28T00:20:35;8.00;99.90
19952;DHT22;10137;49.406;19.484;2024-02-28T00:23:02;7.90;99.90
19952;DHT22;10137;49.406;19.484;2024-02-28T00:25:31;7.90;99.90
19952;DHT22;10137;49.406;19.484;2024-02-28T00:27:58;7.90;99.90
19952;DHT22;10137;49.406;19.484;2024-02-28T00:30:24;7.80;99.90
19952;DHT22;10137;49.406;19.484;2024-02-28T00:32:53;7.90;99.90
19952;DHT22;10137;49.406;19.484;2024-02-28T00:35:19;8.00;99.90
19952;DHT22;10137;49.406;19.484;2024-02-28T00:37:46;7.90;99.90
19952;DHT22;10137;49.406;19.484;2024-02-28T00:40:13;7.80;99.90
19952;DHT22;10137;49.406;19.484;2024-02-28T00:42:41;7.70;99.90
19952;DHT22;10137;49.406;19.484;2024-02-28T00:45:09;7.70;99.90
19952;DHT22;10137;49.406;19.484;2024-02-28T00:47:36;7.70;99.90
19952;DHT22;10137;49.406;19.484;2024-02-28T00:50:04;7.60;99.90
19952;DHT22;10137;49.406;19.484;2024-02-28T00:52:31;7.70;99.90
19952;DHT22;10137;49.406;19.484;2024-02-28T00:54:57;7.70;99.90
19952;DHT22;10137;49.406;19.484;2024-02-28T00:57:25;7.80;99.90
19952;DHT22;10137;49.406;19.484;2024-02-28T00:59:53;7.90;99.90
19952;DHT22;10137;49.406;19.484;2024-02-28T01:02:20;8.00;99.90
19952;DHT22;10137;49.406;19.484;2024-02-28T01:04:47;8.00;99.90
19952;DHT22;10137;49.406;19.484;2024-02-28T01:07:14;8.10;99.90
19952;DHT22;10137;49.406;19.484;2024-02-28T01:09:41;8.00;99.90
19952;DHT22;10137;49.406;19.484;2024-02-28T01:12:08;8.00;99.90
19952;DHT22;10137;49.406;19.484;2024-02-28T01:14:34;7.90;99.90
19952;DHT22;10137;49.406;19.484;2024-02-28T01:17:03;7.80;99.90
19952;DHT22;10137;49.406;19.484;2024-02-28T01:19:30;7.80;99.90
19952;DHT22;10137;49.406;19.484;2024-02-28T01:21:57;7.80;99.90
19952;DHT22;10137;49.406;19.484;2024-02-28T01:24:24;7.80;99.90
19952;DHT22;10137;49.406;19.484;2024-02-28T01:26:50;7.70;99.90
19952;DHT22;10137;49.406;19.484;2024-02-28T01:29:17;7.80;99.90
19952;DHT22;10137;49.406;19.484;2024-02-28T01:31:44;7.80;99.90
19952;DHT22;10137;49.406;19.484;2024-02-28T01:34:13;7.80;99.90
19952;DHT22;10137;49.406;19.484;2024-02-28T01:36:39;7.90;99.90
19952;DHT22;10137;49.406;19.484;2024-02-28T01:39:06;7.90;99.90
19952;DHT22;10137;49.406;19.484;2024-02-28T01:41:33;8.00;99.90
19952;DHT22;10137;49.406;19.484;2024-02-28T01:44:00;8.00;99.90
19952;DHT22;10137;49.406;19.484;2024-02-28T01:46:28;7.90;99.90
19952;DHT22;10137;49.406;19.484;2024-02-28T01:48:57;7.80;99.90
19952;DHT22;10137;49.406;19.484;2024-02-28T01:51:26;7.80;99.90
19952;DHT22;10137;49.406;19.484;2024-02-28T01:53:54;7.70;99.90
19952;DHT22;10137;49.406;19.484;2024-02-28T01:56:23;7.70;99.90
19952;DHT22;10137;49.406;19.484;2024-02-28T01:58:50;7.70;99.90
19952;DHT22;10137;49.406;19.484;2024-02-28T02:01:17;7.70;99.90
19952;DHT22;10137;49.406;19.484;2024-02-28T02:03:44;7.70;99.90
19952;DHT22;10137;49.406;19.484;2024-02-28T02:06:11;7.70;99.90
19952;DHT22;10137;49.406;19.484;2024-02-28T02:08:40;7.70;99.90
19952;DHT22;10137;49.406;19.484;2024-02-28T02:11:08;7.60;99.90
19952;DHT22;10137;49.406;19.484;2024-02-28T02:13:35;7.50;99.90
19952;DHT22;10137;49.406;19.484;2024-02-28T02:16:02;7.50;99.90
19952;DHT22;10137;49.406;19.484;2024-02-28T02:18:29;7.50;99.90
19952;DHT22;10137;49.406;19.484;2024-02-28T02:21:01;7.50;99.90
19952;DHT22;10137;49.406;19.484;2024-02-28T02:23:30;7.40;99.90
19952;DHT22;10137;49.406;19.484;2024-02-28T02:25:57;7.30;99.90
19952;DHT22;10137;49.406;19.484;2024-02-28T02:28:24;7.30;99.90
19952;DHT22;10137;49.406;19.484;2024-02-28T02:30:51;7.30;99.90
19952;DHT22;10137;49.406;19.484;2024-02-28T02:33:18;7.20;99.90
19952;DHT22;10137;49.406;19.484;2024-02-28T02:35:44;7.20;99.90
19952;DHT22;10137;49.406;19.484;2024-02-28T02:38:11;7.20;99.90
19952;DHT22;10137;49.406;19.484;2024-02-28T02:40:39;7.10;99.90
19952;DHT22;10137;49.406;19.484;2024-02-28T02:43:06;7.10;99.90
19952;DHT22;10137;49.406;19.484;2024-02-28T02:45:33;7.10;99.90
19952;DHT22;10137;49.406;19.484;2024-02-28T02:48:00;7.20;99.90
19952;DHT22;10137;49.406;19.484;2024-02-28T02:50:27;7.10;99.90
19952;DHT22;10137;49.406;19.484;2024-02-28T02:52:54;7.10;99.90
19952;DHT22;10137;49.406;19.484;2024-02-28T02:55:20;7.10;99.90
19952;DHT22;10137;49.406;19.484;2024-02-28T02:57:49;7.10;99.90
19952;DHT22;10137;49.406;19.484;2024-02-28T03:00:16;7.10;99.90
19952;DHT22;10137;49.406;19.484;2024-02-28T03:02:43;7.20;99.90
19952;DHT22;10137;49.406;19.484;2024-02-28T03:05:10;7.10;99.90
19952;DHT22;10137;49.406;19.484;2024-02-28T03:07:36;7.00;99.90
19952;DHT22;10137;49.406;19.484;2024-02-28T03:10:04;7.00;99.90
19952;DHT22;10137;49.406;19.484;2024-02-28T03:12:31;7.00;99.90
19952;DHT22;10137;49.406;19.484;2024-02-28T03:15:00;7.00;99.90
19952;DHT22;10137;49.406;19.484;2024-02-28T03:17:26;7.00;99.90
19952;DHT22;10137;49.406;19.484;2024-02-28T03:19:53;7.00;99.90
19952;DHT22;10137;49.406;19.484;2024-02-28T03:22:20;7.00;99.90
19952;DHT22;10137;49.406;19.484;2024-02-28T03:24:47;7.10;99.90
19952;DHT22;10137;49.406;19.484;2024-02-28T03:27:14;7.00;99.90
19952;DHT22;10137;49.406;19.484;2024-02-28T03:29:41;6.80;99.90
19952;DHT22;10137;49.406;19.484;2024-02-28T03:32:09;6.70;99.90
19952;DHT22;10137;49.406;19.484;2024-02-28T03:34:36;6.60;99.90
19952;DHT22;10137;49.406;19.484;2024-02-28T03:37:03;6.60;99.90
19952;DHT22;10137;49.406;19.484;2024-02-28T03:39:30;6.50;99.90
19952;DHT22;10137;49.406;19.484;2024-02-28T03:41:57;6.60;99.90
19952;DHT22;10137;49.406;19.484;2024-02-28T03:44:23;6.50;99.90
19952;DHT22;10137;49.406;19.484;2024-02-28T03:46:51;6.50;99.90
19952;DHT22;10137;49.406;19.484;2024-02-28T03:49:19;6.50;99.90
19952;DHT22;10137;49.406;19.484;2024-02-28T03:51:46;6.40;99.90
19952;DHT22;10137;49.406;19.484;2024-02-28T03:54:13;6.40;99.90
19952;DHT22;10137;49.406;19.484;2024-02-28T03:56:40;6.30;99.90
19952;DHT22;10137;49.406;19.484;2024-02-28T03:59:07;6.30;99.90
19952;DHT22;10137;49.406;19.484;2024-02-28T04:01:34;6.30;99.90
19952;DHT22;10137;49.406;19.484;2024-02-28T04:04:01;6.30;99.90
19952;DHT22;10137;49.406;19.484;2024-02-28T04:06:29;6.30;99.90
19952;DHT22;10137;49.406;19.484;2024-02-28T04:08:56;6.30;99.90
19952;DHT22;10137;49.406;19.484;2024-02-28T04:11:23;6.30;99.90
19952;DHT22;10137;49.406;19.484;2024-02-28T04:13:50;6.20;99.90
19952;DHT22;10137;49.406;19.484;2024-02-28T04:16:17;6.20;99.90
19952;DHT22;10137;49.406;19.484;2024-02-28T04:18:44;6.20;99.90
19952;DHT22;10137;49.406;19.484;2024-02-28T04:21:11;6.30;99.90
19952;DHT22;10137;49.406;19.484;2024-02-28T04:23:39;6.30;99.90
19952;DHT22;10137;49.406;19.484;2024-02-28T04:26:07;6.20;99.90
19952;DHT22;10137;49.406;19.484;2024-02-28T04:28:35;6.20;99.90
19952;DHT22;10137;49.406;19.484;2024-02-28T04:31:02;6.20;99.90
19952;DHT22;10137;49.406;19.484;2024-02-28T04:33:29;6.20;99.90
19952;DHT22;10137;49.406;19.484;2024-02-28T04:35:55;6.20;99.90
19952;DHT22;10137;49.406;19.484;2024-02-28T04:38:22;6.20;99.90
19952;DHT22;10137;49.406;19.484;2024-02-28T04:40:50;6.20;99.90
19952;DHT22;10137;49.406;19.484;2024-02-28T04:43:17;6.20;99.90
19952;DHT22;10137;49.406;19.484;2024-02-28T04:45:44;6.10;99.90
19952;DHT22;10137;49.406;19.484;2024-02-28T04:48:11;6.00;99.90
19952;DHT22;10137;49.406;19.484;2024-02-28T04:50:38;5.90;99.90
19952;DHT22;10137;49.406;19.484;2024-02-28T04:53:05;5.90;99.90
19952;DHT22;10137;49.406;19.484;2024-02-28T04:55:32;5.80;99.90
19952;DHT22;10137;49.406;19.484;2024-02-28T04:58:00;5.80;99.90
19952;DHT22;10137;49.406;19.484;2024-02-28T05:00:27;5.90;99.90
19952;DHT22;10137;49.406;19.484;2024-02-28T05:02:54;5.90;99.90
19952;DHT22;10137;49.406;19.484;2024-02-28T05:05:21;5.90;99.90
19952;DHT22;10137;49.406;19.484;2024-02-28T05:07:48;5.90;99.90
19952;DHT22;10137;49.406;19.484;2024-02-28T05:10:15;5.80;99.90
19952;DHT22;10137;49.406;19.484;2024-02-28T05:12:41;6.00;99.90
19952;DHT22;10137;49.406;19.484;2024-02-28T05:15:10;5.90;99.90
19952;DHT22;10137;49.406;19.484;2024-02-28T05:17:37;5.90;99.90
19952;DHT22;10137;49.406;19.484;2024-02-28T05:20:05;6.00;99.90
19952;DHT22;10137;49.406;19.484;2024-02-28T05:22:32;6.00;99.90
19952;DHT22;10137;49.406;19.484;2024-02-28T05:24:59;5.90;99.90
19952;DHT22;10137;49.406;19.484;2024-02-28T05:27:26;5.90;99.90
19952;DHT22;10137;49.406;19.484;2024-02-28T05:29:53;5.90;99.90
19952;DHT22;10137;49.406;19.484;2024-02-28T05:32:21;5.90;99.90
19952;DHT22;10137;49.406;19.484;2024-02-28T05:34:48;5.80;99.90
19952;DHT22;10137;49.406;19.484;2024-02-28T05:37:16;5.80;99.90
19952;DHT22;10137;49.406;19.484;2024-02-28T05:39:44;5.70;99.90
19952;DHT22;10137;49.406;19.484;2024-02-28T05:42:11;5.70;99.90
19952;DHT22;10137;49.406;19.484;2024-02-28T05:44:37;5.70;99.90
19952;DHT22;10137;49.406;19.484;2024-02-28T05:47:05;5.80;99.90
19952;DHT22;10137;49.406;19.484;2024-02-28T05:49:33;5.80;99.90
19952;DHT22;10137;49.406;19.484;2024-02-28T05:52:00;5.90;99.90
19952;DHT22;10137;49.406;19.484;2024-02-28T05:54:26;5.90;99.90
19952;DHT22;10137;49.406;19.484;2024-02-28T05:56:53;6.10;99.90
19952;DHT22;10137;49.406;19.484;2024-02-28T05:59:20;6.10;99.90
19952;DHT22;10137;49.406;19.484;2024-02-28T06:01:47;6.20;99.90
19952;DHT22;10137;49.406;19.484;2024-02-28T06:04:14;6.30;99.90
19952;DHT22;10137;49.406;19.484;2024-02-28T06:06:42;6.30;99.90
19952;DHT22;10137;49.406;19.484;2024-02-28T06:09:09;6.40;99.90
19952;DHT22;10137;49.406;19.484;2024-02-28T06:11:36;6.40;99.90
19952;DHT22;10137;49.406;19.484;2024-02-28T06:14:03;6.40;99.90
19952;DHT22;10137;49.406;19.484;2024-02-28T06:16:30;6.30;99.90
19952;DHT22;10137;49.406;19.484;2024-02-28T06:18:57;6.30;99.90
19952;DHT22;10137;49.406;19.484;2024-02-28T06:21:24;6.20;99.90
19952;DHT22;10137;49.406;19.484;2024-02-28T06:23:52;6.20;99.90
19952;DHT22;10137;49.406;19.484;2024-02-28T06:26:19;6.20;99.90
19952;DHT22;10137;49.406;19.484;2024-02-28T06:28:46;6.20;99.90
19952;DHT22;10137;49.406;19.484;2024-02-28T06:31:14;6.20;99.90
19952;DHT22;10137;49.406;19.484;2024-02-28T06:33:41;6.20;99.90
19952;DHT22;10137;49.406;19.484;2024-02-28T06:36:08;6.20;99.90
19952;DHT22;10137;49.406;19.484;2024-02-28T06:38:35;6.20;99.90
19952;DHT22;10137;49.406;19.484;2024-02-28T06:41:04;6.20;99.90
19952;DHT22;10137;49.406;19.484;2024-02-28T06:43:33;6.20;99.90
19952;DHT22;10137;49.406;19.484;2024-02-28T06:46:01;6.30;99.90
19952;DHT22;10137;49.406;19.484;2024-02-28T06:48:28;6.30;99.90
19952;DHT22;10137;49.406;19.484;2024-02-28T06:50:55;6.30;99.90
19952;DHT22;10137;49.406;19.484;2024-02-28T06:53:23;6.20;99.90
19952;DHT22;10137;49.406;19.484;2024-02-28T06:55:50;6.20;99.90
19952;DHT22;10137;49.406;19.484;2024-02-28T06:58:18;6.20;99.90
19952;DHT22;10137;49.406;19.484;2024-02-28T07:00:45;6.10;99.90
19952;DHT22;10137;49.406;19.484;2024-02-28T07:03:12;6.20;99.90
19952;DHT22;10137;49.406;19.484;2024-02-28T07:05:39;6.20;99.90
19952;DHT22;10137;49.406;19.484;2024-02-28T07:08:06;6.20;99.90
19952;DHT22;10137;49.406;19.484;2024-02-28T07:10:36;6.20;99.90
19952;DHT22;10137;49.406;19.484;2024-02-28T07:13:03;6.20;99.90
19952;DHT22;10137;49.406;19.484;2024-02-28T07:15:31;6.10;99.90
19952;DHT22;10137;49.406;19.484;2024-02-28T07:17:58;6.10;99.90
19952;DHT22;10137;49.406;19.484;2024-02-28T07:20:25;6.10;99.90
19952;DHT22;10137;49.406;19.484;2024-02-28T07:22:52;6.10;99.90
19952;DHT22;10137;49.406;19.484;2024-02-28T07:25:19;6.10;99.90
19952;DHT22;10137;49.406;19.484;2024-02-28T07:27:45;6.10;99.90
19952;DHT22;10137;49.406;19.484;2024-02-28T07:30:13;6.20;99.90
19952;DHT22;10137;49.406;19.484;2024-02-28T07:32:41;6.30;99.90
19952;DHT22;10137;49.406;19.484;2024-02-28T07:35:08;6.40;99.90
19952;DHT22;10137;49.406;19.484;2024-02-28T07:37:35;6.40;99.90
19952;DHT22;10137;49.406;19.484;2024-02-28T07:40:04;6.50;99.90
19952;DHT22;10137;49.406;19.484;2024-02-28T07:42:31;6.50;99.90
19952;DHT22;10137;49.406;19.484;2024-02-28T07:44:57;6.50;99.90
19952;DHT22;10137;49.406;19.484;2024-02-28T07:47:24;6.60;99.90
19952;DHT22;10137;49.406;19.484;2024-02-28T07:49:52;6.60;99.90
19952;DHT22;10137;49.406;19.484;2024-02-28T07:52:20;6.60;99.90
19952;DHT22;10137;49.406;19.484;2024-02-28T07:54:47;6.70;99.90
19952;DHT22;10137;49.406;19.484;2024-02-28T07:57:14;6.70;99.90
19952;DHT22;10137;49.406;19.484;2024-02-28T07:59:42;6.70;99.90
19952;DHT22;10137;49.406;19.484;2024-02-28T08:02:09;6.70;99.90
19952;DHT22;10137;49.406;19.484;2024-02-28T08:04:37;6.60;99.90
19952;DHT22;10137;49.406;19.484;2024-02-28T08:07:06;6.50;99.90
19952;DHT22;10137;49.406;19.484;2024-02-28T08:09:33;6.50;99.90
19952;DHT22;10137;49.406;19.484;2024-02-28T08:12:00;6.60;99.90
19952;DHT22;10137;49.406;19.484;2024-02-28T08:14:27;6.60;99.90
19952;DHT22;10137;49.406;19.484;2024-02-28T08:16:54;6.60;99.90
19952;DHT22;10137;49.406;19.484;2024-02-28T08:19:21;6.50;99.90
19952;DHT22;10137;49.406;19.484;2024-02-28T08:21:48;6.60;99.90
19952;DHT22;10137;49.406;19.484;2024-02-28T08:24:16;6.60;99.90
19952;DHT22;10137;49.406;19.484;2024-02-28T08:26:43;6.60;99.90
19952;DHT22;10137;49.406;19.484;2024-02-28T08:29:12;6.70;99.90
19952;DHT22;10137;49.406;19.484;2024-02-28T08:31:43;6.80;99.90
19952;DHT22;10137;49.406;19.484;2024-02-28T08:34:10;6.80;99.90
19952;DHT22;10137;49.406;19.484;2024-02-28T08:36:37;6.90;99.90
19952;DHT22;10137;49.406;19.484;2024-02-28T08:39:04;6.90;99.90
19952;DHT22;10137;49.406;19.484;2024-02-28T08:41:34;6.90;99.90
19952;DHT22;10137;49.406;19.484;2024-02-28T08:44:01;7.00;99.90
19952;DHT22;10137;49.406;19.484;2024-02-28T08:46:27;7.00;99.90
19952;DHT22;10137;49.406;19.484;2024-02-28T08:48:54;7.00;99.90
19952;DHT22;10137;49.406;19.484;2024-02-28T08:51:21;7.10;99.90
19952;DHT22;10137;49.406;19.484;2024-02-28T08:53:48;7.10;99.90
19952;DHT22;10137;49.406;19.484;2024-02-28T08:56:17;7.20;99.90
19952;DHT22;10137;49.406;19.484;2024-02-28T08:58:45;7.20;99.90
19952;DHT22;10137;49.406;19.484;2024-02-28T09:01:14;7.20;99.90
19952;DHT22;10137;49.406;19.484;2024-02-28T09:03:41;7.20;99.90
19952;DHT22;10137;49.406;19.484;2024-02-28T09:06:08;7.30;99.90
19952;DHT22;10137;49.406;19.484;2024-02-28T09:08:35;7.40;99.90
19952;DHT22;10137;49.406;19.484;2024-02-28T09:11:02;7.40;99.90
19952;DHT22;10137;49.406;19.484;2024-02-28T09:13:30;7.50;99.90
19952;DHT22;10137;49.406;19.484;2024-02-28T09:15:59;7.50;99.90
19952;DHT22;10137;49.406;19.484;2024-02-28T09:18:25;7.50;99.90
19952;DHT22;10137;49.406;19.484;2024-02-28T09:20:52;7.50;99.90
19952;DHT22;10137;49.406;19.484;2024-02-28T09:23:19;7.60;99.90
19952;DHT22;10137;49.406;19.484;2024-02-28T09:25:46;7.50;99.90
19952;DHT22;10137;49.406;19.484;2024-02-28T09:28:13;7.50;99.90
19952;DHT22;10137;49.406;19.484;2024-02-28T09:30:41;7.50;99.90
19952;DHT22;10137;49.406;19.484;2024-02-28T09:33:10;7.60;99.90
19952;DHT22;10137;49.406;19.484;2024-02-28T09:35:37;7.60;99.90
19952;DHT22;10137;49.406;19.484;2024-02-28T09:38:04;7.60;99.90
19952;DHT22;10137;49.406;19.484;2024-02-28T09:40:31;7.70;99.90
19952;DHT22;10137;49.406;19.484;2024-02-28T09:43:01;7.70;99.90
19952;DHT22;10137;49.406;19.484;2024-02-28T09:45:29;7.70;99.90
19952;DHT22;10137;49.406;19.484;2024-02-28T09:47:58;7.80;99.90
19952;DHT22;10137;49.406;19.484;2024-02-28T09:50:27;7.90;99.90
19952;DHT22;10137;49.406;19.484;2024-02-28T09:52:54;7.90;99.90
19952;DHT22;10137;49.406;19.484;2024-02-28T09:55:21;7.90;99.90
19952;DHT22;10137;49.406;19.484;2024-02-28T09:57:48;7.90;99.90
19952;DHT22;10137;49.406;19.484;2024-02-28T10:00:19;7.90;99.90
19952;DHT22;10137;49.406;19.484;2024-02-28T10:02:47;8.00;99.90
19952;DHT22;10137;49.406;19.484;2024-02-28T10:05:15;8.00;99.90
19952;DHT22;10137;49.406;19.484;2024-02-28T10:07:45;8.10;99.90
19952;DHT22;10137;49.406;19.484;2024-02-28T10:10:12;8.20;99.90
19952;DHT22;10137;49.406;19.484;2024-02-28T10:12:41;8.30;99.90
19952;DHT22;10137;49.406;19.484;2024-02-28T10:15:10;8.30;99.90
19952;DHT22;10137;49.406;19.484;2024-02-28T10:17:37;8.40;99.90
19952;DHT22;10137;49.406;19.484;2024-02-28T10:20:05;8.40;99.90
19952;DHT22;10137;49.406;19.484;2024-02-28T10:22:35;8.40;99.90
19952;DHT22;10137;49.406;19.484;2024-02-28T10:25:04;8.40;99.90
19952;DHT22;10137;49.406;19.484;2024-02-28T10:27:32;8.50;99.90
19952;DHT22;10137;49.406;19.484;2024-02-28T10:30:00;8.50;99.90
19952;DHT22;10137;49.406;19.484;2024-02-28T10:32:30;8.50;99.90
19952;DHT22;10137;49.406;19.484;2024-02-28T10:34:59;8.60;99.90
19952;DHT22;10137;49.406;19.484;2024-02-28T10:37:28;8.60;99.90
19952;DHT22;10137;49.406;19.484;2024-02-28T10:39:57;8.70;99.90
19952;DHT22;10137;49.406;19.484;2024-02-28T10:42:29;8.80;99.90
19952;DHT22;10137;49.406;19.484;2024-02-28T10:44:57;9.00;99.90
19952;DHT22;10137;49.406;19.484;2024-02-28T10:47:26;9.00;99.90
19952;DHT22;10137;49.406;19.484;2024-02-28T10:49:53;9.20;99.90
19952;DHT22;10137;49.406;19.484;2024-02-28T10:52:21;9.20;99.90
19952;DHT22;10137;49.406;19.484;2024-02-28T10:54:53;9.20;99.90
19952;DHT22;10137;49.406;19.484;2024-02-28T10:57:22;9.20;99.90
19952;DHT22;10137;49.406;19.484;2024-02-28T10:59:52;9.20;99.90
19952;DHT22;10137;49.406;19.484;2024-02-28T11:02:20;9.20;99.90
19952;DHT22;10137;49.406;19.484;2024-02-28T11:04:47;9.20;99.90
19952;DHT22;10137;49.406;19.484;2024-02-28T11:07:19;9.20;99.90
19952;DHT22;10137;49.406;19.484;2024-02-28T11:09:47;9.20;99.90
19952;DHT22;10137;49.406;19.484;2024-02-28T11:12:24;9.30;99.90
19952;DHT22;10137;49.406;19.484;2024-02-28T11:14:58;9.30;99.90
19952;DHT22;10137;49.406;19.484;2024-02-28T11:17:27;9.40;99.90
19952;DHT22;10137;49.406;19.484;2024-02-28T11:19:54;9.50;99.90
19952;DHT22;10137;49.406;19.484;2024-02-28T11:22:21;9.50;99.90
19952;DHT22;10137;49.406;19.484;2024-02-28T11:24:49;9.50;99.90
19952;DHT22;10137;49.406;19.484;2024-02-28T11:27:16;9.60;99.90
19952;DHT22;10137;49.406;19.484;2024-02-28T11:29:43;9.70;99.90
19952;DHT22;10137;49.406;19.484;2024-02-28T11:32:13;9.70;99.90
19952;DHT22;10137;49.406;19.484;2024-02-28T11:34:41;9.80;99.90
19952;DHT22;10137;49.406;19.484;2024-02-28T11:37:09;9.90;99.90
19952;DHT22;10137;49.406;19.484;2024-02-28T11:39:36;10.00;99.90
19952;DHT22;10137;49.406;19.484;2024-02-28T11:42:11;10.10;99.90
19952;DHT22;10137;49.406;19.484;2024-02-28T11:44:39;10.20;99.90
19952;DHT22;10137;49.406;19.484;2024-02-28T11:47:07;10.20;99.90
19952;DHT22;10137;49.406;19.484;2024-02-28T11:49:36;10.30;99.90
19952;DHT22;10137;49.406;19.484;2024-02-28T11:52:03;10.40;99.90
19952;DHT22;10137;49.406;19.484;2024-02-28T11:54:30;10.50;99.90
19952;DHT22;10137;49.406;19.484;2024-02-28T11:56:57;10.60;99.90
19952;DHT22;10137;49.406;19.484;2024-02-28T11:59:24;10.70;99.90
19952;DHT22;10137;49.406;19.484;2024-02-28T12:01:51;10.70;99.90
19952;DHT22;10137;49.406;19.484;2024-02-28T12:04:23;10.80;99.90
19952;DHT22;10137;49.406;19.484;2024-02-28T12:06:51;10.80;99.90
19952;DHT22;10137;49.406;19.484;2024-02-28T12:09:18;10.80;99.90
19952;DHT22;10137;49.406;19.484;2024-02-28T12:11:46;10.90;99.90
19952;DHT22;10137;49.406;19.484;2024-02-28T12:14:13;10.90;99.90
19952;DHT22;10137;49.406;19.484;2024-02-28T12:16:40;11.10;99.90
19952;DHT22;10137;49.406;19.484;2024-02-28T12:19:07;11.10;99.90
19952;DHT22;10137;49.406;19.484;2024-02-28T12:21:35;11.00;99.90
19952;DHT22;10137;49.406;19.484;2024-02-28T12:24:04;11.00;99.90
19952;DHT22;10137;49.406;19.484;2024-02-28T12:26:31;11.00;99.90
19952;DHT22;10137;49.406;19.484;2024-02-28T12:28:58;11.00;99.90
19952;DHT22;10137;49.406;19.484;2024-02-28T12:31:26;10.90;99.90
19952;DHT22;10137;49.406;19.484;2024-02-28T12:33:53;11.00;99.90
19952;DHT22;10137;49.406;19.484;2024-02-28T12:36:20;10.90;99.90
19952;DHT22;10137;49.406;19.484;2024-02-28T12:38:47;10.90;99.90
19952;DHT22;10137;49.406;19.484;2024-02-28T12:41:16;10.90;99.90
19952;DHT22;10137;49.406;19.484;2024-02-28T12:43:43;10.90;99.90
19952;DHT22;10137;49.406;19.484;2024-02-28T12:46:10;10.90;99.90
19952;DHT22;10137;49.406;19.484;2024-02-28T12:48:37;11.00;99.90
19952;DHT22;10137;49.406;19.484;2024-02-28T12:51:05;11.10;99.90
19952;DHT22;10137;49.406;19.484;2024-02-28T12:53:32;11.10;99.90
19952;DHT22;10137;49.406;19.484;2024-02-28T12:55:59;11.20;99.90
19952;DHT22;10137;49.406;19.484;2024-02-28T12:58:27;11.30;99.90
19952;DHT22;10137;49.406;19.484;2024-02-28T13:00:54;11.40;99.90
19952;DHT22;10137;49.406;19.484;2024-02-28T13:03:21;11.40;99.90
19952;DHT22;10137;49.406;19.484;2024-02-28T13:05:48;11.40;99.90
19952;DHT22;10137;49.406;19.484;2024-02-28T13:08:15;11.40;99.90
19952;DHT22;10137;49.406;19.484;2024-02-28T13:10:42;11.40;99.90
19952;DHT22;10137;49.406;19.484;2024-02-28T13:13:09;11.50;99.90
19952;DHT22;10137;49.406;19.484;2024-02-28T13:15:40;11.40;99.90
19952;DHT22;10137;49.406;19.484;2024-02-28T13:18:07;11.50;99.90
19952;DHT22;10137;49.406;19.484;2024-02-28T13:20:36;11.40;99.90
19952;DHT22;10137;49.406;19.484;2024-02-28T13:23:05;11.40;99.90
19952;DHT22;10137;49.406;19.484;2024-02-28T13:25:32;11.40;99.90
19952;DHT22;10137;49.406;19.484;2024-02-28T13:27:59;11.40;99.90
19952;DHT22;10137;49.406;19.484;2024-02-28T13:30:26;11.40;99.90
19952;DHT22;10137;49.406;19.484;2024-02-28T13:32:54;11.50;99.90
19952;DHT22;10137;49.406;19.484;2024-02-28T13:35:21;11.50;99.90
19952;DHT22;10137;49.406;19.484;2024-02-28T13:37:48;11.50;99.90
19952;DHT22;10137;49.406;19.484;2024-02-28T13:40:15;11.50;99.90
19952;DHT22;10137;49.406;19.484;2024-02-28T13:42:42;11.50;99.90
19952;DHT22;10137;49.406;19.484;2024-02-28T13:45:11;11.60;99.90
19952;DHT22;10137;49.406;19.484;2024-02-28T13:47:38;11.60;99.90
19952;DHT22;10137;49.406;19.484;2024-02-28T13:50:07;11.60;99.90
19952;DHT22;10137;49.406;19.484;2024-02-28T13:52:35;11.60;99.90
19952;DHT22;10137;49.406;19.484;2024-02-28T13:55:02;11.70;99.90
19952;DHT22;10137;49.406;19.484;2024-02-28T13:57:29;11.70;99.90
19952;DHT22;10137;49.406;19.484;2024-02-28T13:59:56;11.70;99.90
19952;DHT22;10137;49.406;19.484;2024-02-28T14:02:23;11.70;99.90
19952;DHT22;10137;49.406;19.484;2024-02-28T14:04:51;11.70;99.90
19952;DHT22;10137;49.406;19.484;2024-02-28T14:07:20;11.70;99.90
19952;DHT22;10137;49.406;19.484;2024-02-28T14:09:47;11.70;99.90
19952;DHT22;10137;49.406;19.484;2024-02-28T14:12:14;11.70;99.90
19952;DHT22;10137;49.406;19.484;2024-02-28T14:14:41;11.50;99.90
19952;DHT22;10137;49.406;19.484;2024-02-28T14:17:08;11.50;99.90
19952;DHT22;10137;49.406;19.484;2024-02-28T14:19:34;11.50;99.90
19952;DHT22;10137;49.406;19.484;2024-02-28T14:22:02;11.40;99.90
19952;DHT22;10137;49.406;19.484;2024-02-28T14:24:31;11.40;99.90
19952;DHT22;10137;49.406;19.484;2024-02-28T14:26:58;11.40;99.90
19952;DHT22;10137;49.406;19.484;2024-02-28T14:29:25;11.40;99.90
19952;DHT22;10137;49.406;19.484;2024-02-28T14:31:52;11.40;99.90
19952;DHT22;10137;49.406;19.484;2024-02-28T14:34:18;11.50;99.90
19952;DHT22;10137;49.406;19.484;2024-02-28T14:36:45;11.50;99.90
19952;DHT22;10137;49.406;19.484;2024-02-28T14:39:13;11.50;99.90
19952;DHT22;10137;49.406;19.484;2024-02-28T14:41:43;11.50;99.90
19952;DHT22;10137;49.406;19.484;2024-02-28T14:44:10;11.50;99.90
19952;DHT22;10137;49.406;19.484;2024-02-28T14:46:37;11.50;99.90
19952;DHT22;10137;49.406;19.484;2024-02-28T14:49:04;11.50;99.90
19952;DHT22;10137;49.406;19.484;2024-02-28T14:51:31;11.40;99.90
19952;DHT22;10137;49.406;19.484;2024-02-28T14:53:59;11.40;99.90
19952;DHT22;10137;49.406;19.484;2024-02-28T14:56:26;11.40;99.90
19952;DHT22;10137;49.406;19.484;2024-02-28T14:58:55;11.40;99.90
19952;DHT22;10137;49.406;19.484;2024-02-28T15:01:22;11.40;99.90
19952;DHT22;10137;49.406;19.484;2024-02-28T15:03:50;11.40;99.90
19952;DHT22;10137;49.406;19.484;2024-02-28T15:06:17;11.40;99.90
19952;DHT22;10137;49.406;19.484;2024-02-28T15:08:44;11.40;99.90
19952;DHT22;10137;49.406;19.484;2024-02-28T15:11:11;11.40;99.90
19952;DHT22;10137;49.406;19.484;2024-02-28T15:13:38;11.40;99.90
19952;DHT22;10137;49.406;19.484;2024-02-28T15:16:06;11.40;99.90
19952;DHT22;10137;49.406;19.484;2024-02-28T15:18:33;11.40;99.90
19952;DHT22;10137;49.406;19.484;2024-02-28T15:21:00;11.30;99.90
19952;DHT22;10137;49.406;19.484;2024-02-28T15:23:30;11.30;99.90
19952;DHT22;10137;49.406;19.484;2024-02-28T15:25:57;11.30;99.90
19952;DHT22;10137;49.406;19.484;2024-02-28T15:28:23;11.30;99.90